sensor_id;sensor_type;location;lat;lon;timestamp;temperature;humidity
64869;DHT22;51349;52.424;10.840;2023-03-01T00:03:45;-4.50;99.90
64869;DHT22;51349;52.424;10.840;2023-03-01T00:08:46;-4.60;99.90
64869;DHT22;51349;52.424;10.840;2023-03-01T00:13:49;-4.70;99.90
64869;DHT22;51349;52.424;10.840;2023-03-01T00:18:51;-4.70;99.90
64869;DHT22;51349;52.424;10.840;2023-03-01T00:23:52;-4.80;99.90
64869;DHT22;51349;52.424;10.840;2023-03-01T00:28:53;-4.80;99.90
64869;DHT22;51349;52.424;10.840;2023-03-01T00:33:55;-4.90;99.90
64869;DHT22;51349;52.424;10.840;2023-03-01T00:38:57;-4.90;99.90
64869;DHT22;51349;52.424;10.840;2023-03-01T00:43:58;-5.10;99.90
64869;DHT22;51349;52.424;10.840;2023-03-01T00:49:02;-5.20;99.90
64869;DHT22;51349;52.424;10.840;2023-03-01T00:54:04;-5.20;99.90
64869;DHT22;51349;52.424;10.840;2023-03-01T00:59:05;-5.20;99.90
64869;DHT22;51349;52.424;10.840;2023-03-01T01:04:09;-5.30;99.90
64869;DHT22;51349;52.424;10.840;2023-03-01T01:09:12;-5.30;99.90
64869;DHT22;51349;52.424;10.840;2023-03-01T01:14:18;-5.20;99.90
64869;DHT22;51349;52.424;10.840;2023-03-01T01:19:22;-5.30;99.90
64869;DHT22;51349;52.424;10.840;2023-03-01T01:24:23;-5.30;99.90
64869;DHT22;51349;52.424;10.840;2023-03-01T01:29:24;-5.30;99.90
64869;DHT22;51349;52.424;10.840;2023-03-01T01:34:24;-5.50;99.90
64869;DHT22;51349;52.424;10.840;2023-03-01T01:39:25;-5.50;99.90
64869;DHT22;51349;52.424;10.840;2023-03-01T01:44:27;-5.50;99.90
64869;DHT22;51349;52.424;10.840;2023-03-01T01:49:33;-5.60;99.90
64869;DHT22;51349;52.424;10.840;2023-03-01T01:54:55;-5.70;99.90
64869;DHT22;51349;52.424;10.840;2023-03-01T02:00:00;-5.80;99.90
64869;DHT22;51349;52.424;10.840;2023-03-01T02:10:24;-5.90;99.90
64869;DHT22;51349;52.424;10.840;2023-03-01T02:15:25;-5.90;99.90
64869;DHT22;51349;52.424;10.840;2023-03-01T02:30:53;-6.00;99.90
64869;DHT22;51349;52.424;10.840;2023-03-01T02:36:20;-6.00;99.90
64869;DHT22;51349;52.424;10.840;2023-03-01T02:41:23;-6.10;99.90
64869;DHT22;51349;52.424;10.840;2023-03-01T02:46:25;-6.10;99.90
64869;DHT22;51349;52.424;10.840;2023-03-01T02:56:48;-5.80;99.90
64869;DHT22;51349;52.424;10.840;2023-03-01T03:01:49;-6.00;99.90
64869;DHT22;51349;52.424;10.840;2023-03-01T03:06:53;-5.90;99.90
64869;DHT22;51349;52.424;10.840;2023-03-01T03:11:56;-6.10;99.90
64869;DHT22;51349;52.424;10.840;2023-03-01T03:16:57;-5.90;99.90
64869;DHT22;51349;52.424;10.840;2023-03-01T03:21:57;-6.20;99.90
64869;DHT22;51349;52.424;10.840;2023-03-01T03:26:59;-6.20;99.90
64869;DHT22;51349;52.424;10.840;2023-03-01T03:32:00;-6.10;99.90
64869;DHT22;51349;52.424;10.840;2023-03-01T03:37:00;-6.30;99.90
64869;DHT22;51349;52.424;10.840;2023-03-01T03:42:04;-6.30;99.90
64869;DHT22;51349;52.424;10.840;2023-03-01T03:47:05;-6.30;99.90
64869;DHT22;51349;52.424;10.840;2023-03-01T03:52:05;-6.20;99.90
64869;DHT22;51349;52.424;10.840;2023-03-01T03:57:16;-5.90;99.90
64869;DHT22;51349;52.424;10.840;2023-03-01T04:02:17;-6.20;99.90
64869;DHT22;51349;52.424;10.840;2023-03-01T04:07:22;-6.30;99.90
64869;DHT22;51349;52.424;10.840;2023-03-01T04:12:22;-6.40;99.90
64869;DHT22;51349;52.424;10.840;2023-03-01T04:17:23;-6.30;99.90
64869;DHT22;51349;52.424;10.840;2023-03-01T04:22:24;-6.60;99.90
64869;DHT22;51349;52.424;10.840;2023-03-01T04:27:29;-6.50;99.90
64869;DHT22;51349;52.424;10.840;2023-03-01T04:32:31;-6.50;99.90
64869;DHT22;51349;52.424;10.840;2023-03-01T04:37:32;-6.60;99.90
64869;DHT22;51349;52.424;10.840;2023-03-01T04:42:35;-6.60;99.90
64869;DHT22;51349;52.424;10.840;2023-03-01T04:47:36;-6.70;99.90
64869;DHT22;51349;52.424;10.840;2023-03-01T04:52:38;-6.60;99.90
64869;DHT22;51349;52.424;10.840;2023-03-01T04:57:42;-6.70;99.90
64869;DHT22;51349;52.424;10.840;2023-03-01T05:02:42;-6.70;99.90
64869;DHT22;51349;52.424;10.840;2023-03-01T05:07:43;-6.90;99.90
64869;DHT22;51349;52.424;10.840;2023-03-01T05:12:44;-6.80;99.90
64869;DHT22;51349;52.424;10.840;2023-03-01T05:17:44;-6.80;99.90
64869;DHT22;51349;52.424;10.840;2023-03-01T05:22:46;-7.10;99.90
64869;DHT22;51349;52.424;10.840;2023-03-01T05:27:47;-6.90;99.90
64869;DHT22;51349;52.424;10.840;2023-03-01T05:32:50;-6.90;99.90
64869;DHT22;51349;52.424;10.840;2023-03-01T05:37:55;-6.90;99.90
64869;DHT22;51349;52.424;10.840;2023-03-01T05:42:56;-7.00;99.90
64869;DHT22;51349;52.424;10.840;2023-03-01T05:47:57;-7.00;99.90
64869;DHT22;51349;52.424;10.840;2023-03-01T05:53:08;-7.00;99.90
64869;DHT22;51349;52.424;10.840;2023-03-01T05:58:14;-7.20;99.90
64869;DHT22;51349;52.424;10.840;2023-03-01T06:03:17;-7.10;99.90
64869;DHT22;51349;52.424;10.840;2023-03-01T06:08:18;-7.10;99.90
64869;DHT22;51349;52.424;10.840;2023-03-01T06:13:21;-7.10;99.90
64869;DHT22;51349;52.424;10.840;2023-03-01T06:18:21;-7.20;99.90
64869;DHT22;51349;52.424;10.840;2023-03-01T06:23:23;-7.20;99.90
64869;DHT22;51349;52.424;10.840;2023-03-01T06:28:24;-7.00;99.90
64869;DHT22;51349;52.424;10.840;2023-03-01T06:33:25;-7.00;99.90
64869;DHT22;51349;52.424;10.840;2023-03-01T06:38:25;-6.90;99.90
64869;DHT22;51349;52.424;10.840;2023-03-01T06:43:26;-6.90;99.90
64869;DHT22;51349;52.424;10.840;2023-03-01T06:48:27;-6.70;99.90
64869;DHT22;51349;52.424;10.840;2023-03-01T06:53:28;-6.60;99.90
64869;DHT22;51349;52.424;10.840;2023-03-01T06:58:29;-6.50;99.90
64869;DHT22;51349;52.424;10.840;2023-03-01T07:03:30;-6.20;99.90
64869;DHT22;51349;52.424;10.840;2023-03-01T07:08:30;-6.00;99.90
64869;DHT22;51349;52.424;10.840;2023-03-01T07:13:32;-5.20;99.90
64869;DHT22;51349;52.424;10.840;2023-03-01T07:18:32;-4.80;99.90
64869;DHT22;51349;52.424;10.840;2023-03-01T07:23:33;-5.00;99.90
64869;DHT22;51349;52.424;10.840;2023-03-01T07:28:34;-5.10;99.90
64869;DHT22;51349;52.424;10.840;2023-03-01T07:33:36;-4.60;99.90
64869;DHT22;51349;52.424;10.840;2023-03-01T07:38:36;-4.60;99.90
64869;DHT22;51349;52.424;10.840;2023-03-01T07:43:37;-4.30;99.90
64869;DHT22;51349;52.424;10.840;2023-03-01T07:48:38;-3.90;99.90
64869;DHT22;51349;52.424;10.840;2023-03-01T07:53:39;-3.60;99.90
64869;DHT22;51349;52.424;10.840;2023-03-01T07:58:43;-3.00;99.90
64869;DHT22;51349;52.424;10.840;2023-03-01T08:03:44;-2.60;99.90
64869;DHT22;51349;52.424;10.840;2023-03-01T08:08:45;-2.30;99.90
64869;DHT22;51349;52.424;10.840;2023-03-01T08:13:48;-1.60;99.90
64869;DHT22;51349;52.424;10.840;2023-03-01T08:18:49;-0.80;99.90
64869;DHT22;51349;52.424;10.840;2023-03-01T08:23:49;0.40;99.90
64869;DHT22;51349;52.424;10.840;2023-03-01T08:28:50;1.30;99.90
64869;DHT22;51349;52.424;10.840;2023-03-01T08:33:53;2.00;99.90
64869;DHT22;51349;52.424;10.840;2023-03-01T08:38:57;2.80;99.90
64869;DHT22;51349;52.424;10.840;2023-03-01T08:43:58;4.00;99.90
64869;DHT22;51349;52.424;10.840;2023-03-01T08:48:59;4.10;99.90
64869;DHT22;51349;52.424;10.840;2023-03-01T08:54:00;5.30;99.90
64869;DHT22;51349;52.424;10.840;2023-03-01T08:59:01;5.30;99.90
64869;DHT22;51349;52.424;10.840;2023-03-01T09:04:02;5.50;99.90
64869;DHT22;51349;52.424;10.840;2023-03-01T09:09:04;7.10;99.90
64869;DHT22;51349;52.424;10.840;2023-03-01T09:14:05;8.10;99.90
64869;DHT22;51349;52.424;10.840;2023-03-01T09:19:06;8.30;99.90
64869;DHT22;51349;52.424;10.840;2023-03-01T09:24:13;8.50;99.90
64869;DHT22;51349;52.424;10.840;2023-03-01T09:29:15;9.60;99.90
64869;DHT22;51349;52.424;10.840;2023-03-01T09:34:16;9.60;99.90
64869;DHT22;51349;52.424;10.840;2023-03-01T09:39:23;10.90;99.90
64869;DHT22;51349;52.424;10.840;2023-03-01T09:44:42;12.10;99.30
64869;DHT22;51349;52.424;10.840;2023-03-01T09:49:47;12.20;94.80
64869;DHT22;51349;52.424;10.840;2023-03-01T09:54:55;11.90;88.90
64869;DHT22;51349;52.424;10.840;2023-03-01T10:00:30;11.30;90.70
64869;DHT22;51349;52.424;10.840;2023-03-01T10:05:59;11.90;83.70
64869;DHT22;51349;52.424;10.840;2023-03-01T10:11:03;14.20;86.60
64869;DHT22;51349;52.424;10.840;2023-03-01T10:16:16;14.90;81.50
64869;DHT22;51349;52.424;10.840;2023-03-01T10:21:19;14.90;77.70
64869;DHT22;51349;52.424;10.840;2023-03-01T10:26:35;15.60;72.80
64869;DHT22;51349;52.424;10.840;2023-03-01T10:31:55;15.50;72.20
64869;DHT22;51349;52.424;10.840;2023-03-01T10:37:12;15.30;61.30
64869;DHT22;51349;52.424;10.840;2023-03-01T10:47:29;16.50;64.80
64869;DHT22;51349;52.424;10.840;2023-03-01T10:52:36;15.20;58.40
64869;DHT22;51349;52.424;10.840;2023-03-01T10:57:38;17.90;61.20
64869;DHT22;51349;52.424;10.840;2023-03-01T11:02:40;16.80;57.60
64869;DHT22;51349;52.424;10.840;2023-03-01T11:07:52;16.70;55.90
64869;DHT22;51349;52.424;10.840;2023-03-01T11:13:05;18.40;56.90
64869;DHT22;51349;52.424;10.840;2023-03-01T11:18:19;16.80;54.60
64869;DHT22;51349;52.424;10.840;2023-03-01T11:23:21;17.70;53.50
64869;DHT22;51349;52.424;10.840;2023-03-01T11:28:23;16.30;54.50
64869;DHT22;51349;52.424;10.840;2023-03-01T11:38:38;19.10;53.00
64869;DHT22;51349;52.424;10.840;2023-03-01T11:43:48;17.50;47.00
64869;DHT22;51349;52.424;10.840;2023-03-01T12:00:14;16.70;49.00
64869;DHT22;51349;52.424;10.840;2023-03-01T12:10:52;20.60;47.00
64869;DHT22;51349;52.424;10.840;2023-03-01T12:16:24;20.70;46.00
64869;DHT22;51349;52.424;10.840;2023-03-01T12:21:51;23.20;47.90
64869;DHT22;51349;52.424;10.840;2023-03-01T12:27:20;20.10;44.00
64869;DHT22;51349;52.424;10.840;2023-03-01T12:43:03;21.60;44.20
64869;DHT22;51349;52.424;10.840;2023-03-01T12:53:40;21.30;44.00
64869;DHT22;51349;52.424;10.840;2023-03-01T13:09:18;20.20;44.90
64869;DHT22;51349;52.424;10.840;2023-03-01T13:19:27;22.10;43.90
64869;DHT22;51349;52.424;10.840;2023-03-01T13:24:42;17.20;45.30
64869;DHT22;51349;52.424;10.840;2023-03-01T13:29:47;19.40;45.10
64869;DHT22;51349;52.424;10.840;2023-03-01T13:34:53;17.00;46.50
64869;DHT22;51349;52.424;10.840;2023-03-01T13:39:56;17.70;47.20
64869;DHT22;51349;52.424;10.840;2023-03-01T13:44:58;17.70;45.00
64869;DHT22;51349;52.424;10.840;2023-03-01T13:50:03;16.40;45.40
64869;DHT22;51349;52.424;10.840;2023-03-01T13:55:19;17.00;47.50
64869;DHT22;51349;52.424;10.840;2023-03-01T14:00:30;13.50;50.60
64869;DHT22;51349;52.424;10.840;2023-03-01T14:05:33;14.90;49.30
64869;DHT22;51349;52.424;10.840;2023-03-01T14:10:50;13.30;51.30
64869;DHT22;51349;52.424;10.840;2023-03-01T14:20:59;11.20;50.70
64869;DHT22;51349;52.424;10.840;2023-03-01T14:26:01;12.30;51.00
64869;DHT22;51349;52.424;10.840;2023-03-01T14:31:02;12.00;50.60
64869;DHT22;51349;52.424;10.840;2023-03-01T14:36:11;11.70;50.50
64869;DHT22;51349;52.424;10.840;2023-03-01T14:41:24;11.20;51.30
64869;DHT22;51349;52.424;10.840;2023-03-01T14:51:39;11.60;51.60
64869;DHT22;51349;52.424;10.840;2023-03-01T14:56:44;12.10;52.10
64869;DHT22;51349;52.424;10.840;2023-03-01T15:01:46;11.30;52.80
64869;DHT22;51349;52.424;10.840;2023-03-01T15:06:51;11.30;52.50
64869;DHT22;51349;52.424;10.840;2023-03-01T15:11:51;11.90;52.80
64869;DHT22;51349;52.424;10.840;2023-03-01T15:16:52;12.00;51.90
64869;DHT22;51349;52.424;10.840;2023-03-01T15:21:53;11.20;51.30
64869;DHT22;51349;52.424;10.840;2023-03-01T15:26:59;12.40;52.40
64869;DHT22;51349;52.424;10.840;2023-03-01T15:32:26;12.60;49.80
64869;DHT22;51349;52.424;10.840;2023-03-01T15:37:48;10.10;51.70
64869;DHT22;51349;52.424;10.840;2023-03-01T15:42:49;9.10;52.50
64869;DHT22;51349;52.424;10.840;2023-03-01T15:47:58;8.90;53.20
64869;DHT22;51349;52.424;10.840;2023-03-01T15:53:10;8.30;52.90
64869;DHT22;51349;52.424;10.840;2023-03-01T15:58:20;8.10;53.70
64869;DHT22;51349;52.424;10.840;2023-03-01T16:03:22;7.80;54.60
64869;DHT22;51349;52.424;10.840;2023-03-01T16:08:23;7.60;55.30
64869;DHT22;51349;52.424;10.840;2023-03-01T16:13:23;7.40;56.10
64869;DHT22;51349;52.424;10.840;2023-03-01T16:18:25;7.10;57.20
64869;DHT22;51349;52.424;10.840;2023-03-01T16:23:26;7.00;59.10
64869;DHT22;51349;52.424;10.840;2023-03-01T16:28:26;6.80;58.90
64869;DHT22;51349;52.424;10.840;2023-03-01T16:33:27;6.50;59.20
64869;DHT22;51349;52.424;10.840;2023-03-01T16:38:29;6.30;59.50
64869;DHT22;51349;52.424;10.840;2023-03-01T16:43:31;6.10;59.40
64869;DHT22;51349;52.424;10.840;2023-03-01T16:48:32;5.80;59.80
64869;DHT22;51349;52.424;10.840;2023-03-01T16:53:34;5.60;61.10
64869;DHT22;51349;52.424;10.840;2023-03-01T16:58:37;5.40;60.60
64869;DHT22;51349;52.424;10.840;2023-03-01T17:03:39;5.10;60.20
64869;DHT22;51349;52.424;10.840;2023-03-01T17:08:40;4.70;60.10
64869;DHT22;51349;52.424;10.840;2023-03-01T17:13:41;4.30;61.60
64869;DHT22;51349;52.424;10.840;2023-03-01T17:18:43;4.10;63.10
64869;DHT22;51349;52.424;10.840;2023-03-01T17:23:44;3.80;62.80
64869;DHT22;51349;52.424;10.840;2023-03-01T17:28:45;3.20;65.90
64869;DHT22;51349;52.424;10.840;2023-03-01T17:33:51;2.90;67.10
64869;DHT22;51349;52.424;10.840;2023-03-01T17:38:51;2.60;67.80
64869;DHT22;51349;52.424;10.840;2023-03-01T17:43:55;2.20;71.10
64869;DHT22;51349;52.424;10.840;2023-03-01T17:48:55;2.00;73.30
64869;DHT22;51349;52.424;10.840;2023-03-01T17:53:56;1.80;73.40
64869;DHT22;51349;52.424;10.840;2023-03-01T17:58:57;1.60;76.10
64869;DHT22;51349;52.424;10.840;2023-03-01T18:03:57;1.40;78.20
64869;DHT22;51349;52.424;10.840;2023-03-01T18:08:58;1.30;78.60
64869;DHT22;51349;52.424;10.840;2023-03-01T18:13:59;1.10;78.40
64869;DHT22;51349;52.424;10.840;2023-03-01T18:19:01;0.90;80.20
64869;DHT22;51349;52.424;10.840;2023-03-01T18:24:01;0.70;82.30
64869;DHT22;51349;52.424;10.840;2023-03-01T18:29:02;0.50;83.10
64869;DHT22;51349;52.424;10.840;2023-03-01T18:34:04;0.50;86.60
64869;DHT22;51349;52.424;10.840;2023-03-01T18:39:05;0.40;87.10
64869;DHT22;51349;52.424;10.840;2023-03-01T18:44:06;0.30;86.30
64869;DHT22;51349;52.424;10.840;2023-03-01T18:49:07;0.10;87.70
64869;DHT22;51349;52.424;10.840;2023-03-01T18:54:10;-0.10;88.80
64869;DHT22;51349;52.424;10.840;2023-03-01T18:59:11;0.00;88.90
64869;DHT22;51349;52.424;10.840;2023-03-01T19:04:12;0.00;84.50
64869;DHT22;51349;52.424;10.840;2023-03-01T19:09:13;-0.20;88.60
64869;DHT22;51349;52.424;10.840;2023-03-01T19:14:14;-0.10;90.80
64869;DHT22;51349;52.424;10.840;2023-03-01T19:19:15;-0.40;92.10
64869;DHT22;51349;52.424;10.840;2023-03-01T19:24:16;-0.50;94.20
64869;DHT22;51349;52.424;10.840;2023-03-01T19:29:16;-0.40;93.80
64869;DHT22;51349;52.424;10.840;2023-03-01T19:34:17;-0.60;94.00
64869;DHT22;51349;52.424;10.840;2023-03-01T19:39:18;-0.80;95.00
64869;DHT22;51349;52.424;10.840;2023-03-01T19:44:18;-0.80;97.60
64869;DHT22;51349;52.424;10.840;2023-03-01T19:49:24;-0.90;96.70
64869;DHT22;51349;52.424;10.840;2023-03-01T19:54:26;-1.00;97.00
64869;DHT22;51349;52.424;10.840;2023-03-01T19:59:26;-1.10;99.90
64869;DHT22;51349;52.424;10.840;2023-03-01T20:04:27;-1.10;99.90
64869;DHT22;51349;52.424;10.840;2023-03-01T20:09:28;-1.20;99.90
64869;DHT22;51349;52.424;10.840;2023-03-01T20:14:28;-1.20;99.90
64869;DHT22;51349;52.424;10.840;2023-03-01T20:19:29;-1.30;99.90
64869;DHT22;51349;52.424;10.840;2023-03-01T20:24:30;-1.40;99.90
64869;DHT22;51349;52.424;10.840;2023-03-01T20:29:31;-1.40;99.90
64869;DHT22;51349;52.424;10.840;2023-03-01T20:34:32;-1.40;99.90
64869;DHT22;51349;52.424;10.840;2023-03-01T20:39:32;-1.40;99.90
64869;DHT22;51349;52.424;10.840;2023-03-01T20:44:33;-1.50;99.90
64869;DHT22;51349;52.424;10.840;2023-03-01T20:49:34;-1.60;99.90
64869;DHT22;51349;52.424;10.840;2023-03-01T20:54:35;-1.60;99.90
64869;DHT22;51349;52.424;10.840;2023-03-01T20:59:38;-1.70;99.90
64869;DHT22;51349;52.424;10.840;2023-03-01T21:04:39;-1.80;99.90
64869;DHT22;51349;52.424;10.840;2023-03-01T21:09:40;-1.80;99.90
64869;DHT22;51349;52.424;10.840;2023-03-01T21:14:41;-1.80;99.90
64869;DHT22;51349;52.424;10.840;2023-03-01T21:19:43;-1.80;99.90
64869;DHT22;51349;52.424;10.840;2023-03-01T21:24:44;-1.80;99.90
64869;DHT22;51349;52.424;10.840;2023-03-01T21:29:46;-1.80;99.90
64869;DHT22;51349;52.424;10.840;2023-03-01T21:34:46;-1.90;99.90
64869;DHT22;51349;52.424;10.840;2023-03-01T21:39:47;-2.00;99.90
64869;DHT22;51349;52.424;10.840;2023-03-01T21:44:47;-1.90;99.90
64869;DHT22;51349;52.424;10.840;2023-03-01T21:49:48;-2.00;99.90
64869;DHT22;51349;52.424;10.840;2023-03-01T21:54:52;-2.00;99.90
64869;DHT22;51349;52.424;10.840;2023-03-01T21:59:54;-2.00;99.90
64869;DHT22;51349;52.424;10.840;2023-03-01T22:04:55;-2.20;99.90
64869;DHT22;51349;52.424;10.840;2023-03-01T22:09:56;-2.30;99.90
64869;DHT22;51349;52.424;10.840;2023-03-01T22:14:57;-2.30;99.90
64869;DHT22;51349;52.424;10.840;2023-03-01T22:19:58;-2.40;99.90
64869;DHT22;51349;52.424;10.840;2023-03-01T22:24:58;-2.40;99.90
64869;DHT22;51349;52.424;10.840;2023-03-01T22:29:59;-2.50;99.90
64869;DHT22;51349;52.424;10.840;2023-03-01T22:35:00;-2.60;99.90
64869;DHT22;51349;52.424;10.840;2023-03-01T22:40:00;-2.70;99.90
64869;DHT22;51349;52.424;10.840;2023-03-01T22:45:04;-2.70;99.90
64869;DHT22;51349;52.424;10.840;2023-03-01T22:50:07;-2.70;99.90
64869;DHT22;51349;52.424;10.840;2023-03-01T22:55:08;-2.80;99.90
64869;DHT22;51349;52.424;10.840;2023-03-01T23:00:10;-2.70;99.90
64869;DHT22;51349;52.424;10.840;2023-03-01T23:05:12;-2.80;99.90
64869;DHT22;51349;52.424;10.840;2023-03-01T23:10:13;-2.80;99.90
64869;DHT22;51349;52.424;10.840;2023-03-01T23:15:14;-2.90;99.90
64869;DHT22;51349;52.424;10.840;2023-03-01T23:20:15;-2.90;99.90
64869;DHT22;51349;52.424;10.840;2023-03-01T23:25:16;-2.70;99.90
64869;DHT22;51349;52.424;10.840;2023-03-01T23:30:17;-2.70;99.90
64869;DHT22;51349;52.424;10.840;2023-03-01T23:35:17;-2.80;99.90
64869;DHT22;51349;52.424;10.840;2023-03-01T23:40:18;-3.00;99.90
64869;DHT22;51349;52.424;10.840;2023-03-01T23:45:19;-3.10;99.90
64869;DHT22;51349;52.424;10.840;2023-03-01T23:50:20;-3.10;99.90
64869;DHT22;51349;52.424;10.840;2023-03-01T23:55:21;-3.10;99.90
